braxton's sites:

title views votes rating creation
?My Drunk Mother in Law 2 2,068 22 (4.27)  2011-01-09
?My Drunk Mother in Law 5,119 50 (3.96)  2011-01-04
?My Drunk Ex-Wife 2,356 25 (4.00)  2010-07-06
?Gr33n Art Nouveau 920 18 (3.61)  2009-12-12
?(nsfw) Max and Friends Relax.avi 1,914 46 (4.11)  2009-10-27
?Choose the new Xanax campaign billboard 910 19 (4.16)  2009-09-15
?Emma and Steph 5,350 104 (3.86)  2009-07-25
?TournamenTMND3: LOSERS BRACKET 1,055 33 (4.09)  2009-07-23
?YteamND Collab: Lester's Room 857 20 (4.20)  2009-07-21
?(nsfw) Walter Cronkite's Last Skeet 2,320 25 (4.08)  2009-07-17
?TOURNEY3: DramamarD 790 14 (4.00)  2009-07-16
?5509 Chestnut Street 1,003 10 (4.50)  2009-07-15
?(nsfw) Words are Important 1,463 21 (4.29)  2009-07-05
?The Final 2 Users of YTMND 669 14 (3.29)  2009-07-05
?Elastic Snap Hole of the Love Bear I'm Late ... 911 17 (3.82)  2009-07-05
?Hey Man Nice Pez 1,307 22 (4.18)  2009-05-25
?Lester and All Man in 2012 2,751 50 (4.14)  2009-02-26
?AMFSTFU 3,618 21 (3.76)  2009-02-14
?MICROPHONETMND: Feedback 803 33 (4.03)  2009-02-11
?Braxton has an answer for Max 1,338 46 (3.96)  2008-12-30
?Shoe Jokes 1,025 21 (3.86)  2008-12-15
?Braxton is no longer featured 809 34 (3.68)  2008-12-05
?Am I Still Featured? 679 11 (3.36)  2008-12-05
?American People 2,423 58 (3.79)  2008-10-31
?(nsfw) Lester and All Man Vote 3,722 149 (4.03)  2008-10-22
?Venus in Spurs 1,763 51 (3.29)  2008-10-15
?1987 Fleer 2,375 54 (3.37)  2008-10-14
?Moon Man vs. All Man 2,251 80 (3.69)  2008-09-21
?(nsfw) Sparkles 3,626 147 (4.02)  2008-09-05
?Bill Kurtis finds the Internet 5,311 64 (3.58)  2008-08-25
?Another site about tits 6,187 101 (3.93)  2008-08-22
?John Cusack in... Eat Anything 5,487 32 (4.09)  2008-08-20
?(nsfw) fyrestorm vs tits 16,863 282 (3.98)  2008-08-19
?you know why you didn't see a sign? 2,003 37 (4.30)  2008-06-29
?Small Brown Men 384 5 (3.80)  2008-06-26
?Harry Potter and the Best Fad Ever 1,311 19 (3.89)  2008-06-16
?Custer's Revenge 3,788 34 (4.32)  2008-06-15
?Pushing your button 515 8 (4.13)  2008-06-08
?KHOCKTMND 430 13 (3.00)  2008-06-08
?Road Raging 642 15 (3.47)  2008-06-07
?McCain's Secret Identity 705 12 (3.58)  2008-06-07
?Lester and All-Man Night on the Town 2,260 45 (4.27)  2008-06-05
?Lester and All-Man's Day Off 4,146 78 (4.21)  2008-05-31
?Beheading Heidi Montag 1,103 14 (3.64)  2008-05-31
?Indiana Jones and the magical forest 563 14 (2.57)  2008-05-31
?Indiana Jones and the Temple of YTMND! 557 13 (2.38)  2008-05-31
?(nsfw) My Drunk Wife wants a divorce 12,667 182 (3.78)  2008-05-31
?Hulk Kok 828 13 (4.15)  2008-05-29
?(nsfw) Renee Zellweger vs Sarah Jessica Parker 15,412 270 (3.51)  2008-05-28
?Soft brain is perfect for crushing 440 8 (3.50)  2008-05-11
?See N Say 1,586 37 (4.19)  2008-05-10
?alphabetz and drugz 883 14 (3.86)  2008-05-09
?4 years ago NEVER FORGET 555 9 (2.78)  2008-05-08
?5 DAYS LATER NEVER FORGET 535 7 (2.43)  2008-05-08
?Miley Cyrus vs. Ninja 1,449 8 (2.00)  2008-05-07
?Dewey Duck gets a drug problem 511 10 (3.50)  2008-05-07
?McMuffin 1,613 11 (3.00)  2008-05-07
?Metal Gear VS. GTA4 589 13 (1.77)  2008-05-06
?Mila Kunis really likes milkshakes 1,048 11 (2.73)  2008-05-06
?Picard sexz Counselor Troy 841 10 (2.60)  2008-05-06
?Heidi Montag Sex Tape 872 5 (2.80)  2008-05-05
?Iron Man given go ahead for sequel 659 12 (2.25)  2008-05-05
?Eight Belles 378 7 (3.00)  2008-05-05
?My Drunk Wife Part 2 4,402 85 (4.24)  2008-03-17
?I found your balls 645 12 (3.58)  2008-02-13
?Ben from Short Circuit beats his wife 763 9 (2.22)  2008-02-13
?(nsfw) I vote for Obama because 1,039 9 (3.67)  2008-02-12
?Tom Brady is Beauty 598 4 (3.25)  2008-02-12
?Is this your baby? 480 4 (3.00)  2008-02-12
?(nsfw) My Drunk Wife 8,843 128 (4.49)  2008-02-10
?Hillary Clinton will be our next President 699 12 (2.67)  2008-01-27
?Uncle Phil Works his ass off 395 6 (2.83)  2008-01-25
?Crop your photos 915 27 (4.00)  2008-01-24
?Danson vs. Cruise who is truly God? 350 5 (3.40)  2008-01-17
?(nsfw) YTMND user's sister vs. Black man 691 10 (3.50)  2008-01-16
?2 Marshmallows do Snow White during a Thunders... 512 10 (3.50)  2008-01-16
?Pump you up 383 5 (3.00)  2008-01-16
?War, Famine, Conquest, Death, Cowabunga 280 9 (2.56)  2008-01-14
?(nsfw) Terrell Owens actin' like a bitch 1,077 11 (3.09)  2008-01-14
?Peppy Hare is invading Navy Waters 660 9 (2.22)  2008-01-13
?The coolest kid you knew on the short bus 839 15 (2.80)  2008-01-12
?(nsfw) Danson is all, all is Him 604 8 (3.00)  2008-01-11
?Danson vs. Connery (Refresh) 381 11 (2.36)  2008-01-09
?Ninja Scroll's Jubei vs. Michael J. Fox 594 5 (3.40)  2008-01-08
?Ted Danson Judgement Day 655 9 (3.44)  2008-01-08
?Full House's Stephanie's confession 1,184 24 (3.04)  2008-01-07
?Nobody can kick my ass 700 9 (3.56)  2008-01-07
?OMFG Obama 1,939 17 (3.29)  2008-01-07
?Hillary's revenge 884 9 (3.00)  2008-01-06
?Ted Danson epic procreation maneuver 734 15 (3.20)  2008-01-03
?Ted Danson epic evolution maneuver 1,412 22 (4.00)  2008-01-01
?Nigga stole my baby 2,150 9 (2.00)  2008-01-01
?Ted Danson invented jazz 597 9 (3.00)  2007-12-31
?Ted Danson is fighting the power 591 11 (3.55)  2007-12-31
?Ted Danson says hello 719 15 (3.93)  2007-12-30
?Eric Clapton...close your window 1,718 17 (1.76)  2007-12-30
?Ted Danson stole my race 1,328 35 (3.94)  2007-12-29
?Chinese people eat penis 1,118 14 (3.14)  2007-12-29
?You have chosen wisely 4,286 11 (3.64)  2007-12-29
?ASIAN WHORE LIKES TACOS 587 11 (2.45)  2007-12-28
?ASIAN WHORE HATES JEWS 989 12 (2.83)  2007-12-28
?ASIAN WHORE HAS TURTLE POWER 679 13 (3.00)  2007-12-28
?lol 578 6 (2.50)  2007-12-28
?Sonny Bono's child of incest wins the Showc... 1,120 9 (4.00)  2007-12-28
?(nsfw) Pootie Tang stole my bike 886 9 (2.67)  2007-12-27
?The answer is Not 575 6 (2.50)  2007-12-27
?Nigga Stole My Cat 2,474 21 (3.52)  2007-12-27